Time;durP1;ratioP1;P1;durP2;ratioP2;P2;SDS_P1;SDS_P2;PMS_P1;PMS_P2;Temp;Humidity;BMP_temperature;BMP_pressure;BME280_temperature;BME280_humidity;BME280_pressure;Samples;Min_cycle;Max_cycle;Signal;HPM_P1;HPM_P2
2021/08/20 00:00:11;;;;;;;;;;;;;;;;;;5025495;28;20032;-69
2021/08/20 00:02:38;;;;;;;;;;;;;;;;;;5016769;28;19926;-69
2021/08/20 00:05:05;;;;;;;;;;;;;;;;;;5022914;28;19932;-69
2021/08/20 00:07:32;;;;;;;;;;;;;;;;;;5030066;28;19925;-69
2021/08/20 00:09:59;;;;;;;;;;;;;;;;;;5020826;28;19926;-69
2021/08/20 00:12:26;;;;;;;;;;;;;;;;;;5015215;28;20362;-69
2021/08/20 00:14:55;;;;;;;;;;;;;;;;;;5022479;28;19928;-69
2021/08/20 00:17:22;;;;;;;;;;;;;;;;;;5023136;28;19988;-69
2021/08/20 00:19:49;;;;;;;;;;;;;;;;;;5021460;28;19931;-69
2021/08/20 00:22:16;;;;;;;;;;;;;;;;;;5021672;28;20633;-68
2021/08/20 00:24:43;;;;;;;;;;;;;;;;;;5022289;28;19925;-69
2021/08/20 00:27:10;;;;;;;;;;;;;;;;;;5022229;28;19933;-69
2021/08/20 00:29:37;;;;;;;;;;;;;;;;;;5020907;28;19929;-69
2021/08/20 00:32:03;;;;;;;;;;;;;;;;;;5021528;28;19929;-69
2021/08/20 00:34:30;;;;;;;;;;;;;;;;;;5024216;28;19925;-69
2021/08/20 00:36:57;;;;;;;;;;;;;;;;;;5018881;28;19929;-69
2021/08/20 00:39:24;;;;;;;;;;;;;;;;;;5017576;28;19940;-68
2021/08/20 00:41:51;;;;;;;;;;;;;;;;;;5016906;28;19956;-69
2021/08/20 00:44:18;;;;;;;;;;;;;;;;;;5016939;28;20320;-69
2021/08/20 00:46:45;;;;;;;;;;;;;;;;;;5017000;28;19932;-69
2021/08/20 00:49:12;;;;;;;;;;;;;;;;;;5017145;28;19925;-69
2021/08/20 00:51:39;;;;;;;;;;;;;;;;;;5016340;28;19952;-70
2021/08/20 00:54:08;;;;;;;;;;;;;;;;;;5017458;28;20298;-70
2021/08/20 00:56:35;;;;;;;;;;;;;;;;;;5021058;28;19957;-69
2021/08/20 00:59:02;;;;;;;;;;;;;;;;;;5022378;28;19971;-69
2021/08/20 01:01:30;;;;;;;;;;;;;;;;;;5018638;28;19933;-69
2021/08/20 01:03:56;;;;;;;;;;;;;;;;;;5020823;28;19976;-70
2021/08/20 01:06:23;;;;;;;;;;;;;;;;;;5021306;28;20304;-70
2021/08/20 01:08:50;;;;;;;;;;;;;;;;;;5020348;28;19925;-70
2021/08/20 01:11:17;;;;;;;;;;;;;;;;;;5022564;28;19930;-68
2021/08/20 01:13:44;;;;;;;;;;;;;;;;;;5022800;28;19940;-70
2021/08/20 01:16:11;;;;;;;;;;;;;;;;;;5021900;28;19933;-69
2021/08/20 01:18:38;;;;;;;;;;;;;;;;;;5020748;28;19932;-69
2021/08/20 01:21:05;;;;;;;;;;;;;;;;;;5021823;28;20700;-69
2021/08/20 01:23:32;;;;;;;;;;;;;;;;;;5019100;28;19941;-70
2021/08/20 01:25:59;;;;;;;;;;;;;;;;;;5019017;28;19929;-69
2021/08/20 01:28:26;;;;;;;;;;;;;;;;;;5022353;28;19932;-69
2021/08/20 01:30:53;;;;;;;;;;;;;;;;;;5019424;28;19930;-69
2021/08/20 01:33:20;;;;;;;;;;;;;;;;;;5019872;28;19932;-69
2021/08/20 01:35:47;;;;;;;;;;;;;;;;;;5021975;28;19933;-69
2021/08/20 01:38:14;;;;;;;;;;;;;;;;;;5021780;28;19925;-70
2021/08/20 01:40:41;;;;;;;;;;;;;;;;;;5021623;28;19926;-69
2021/08/20 01:43:08;;;;;;;;;;;;;;;;;;5023357;28;19952;-69
2021/08/20 01:45:35;;;;;;;;;;;;;;;;;;5019508;28;19933;-70
2021/08/20 01:48:02;;;;;;;;;;;;;;;;;;5020448;28;20028;-69
2021/08/20 01:50:29;;;;;;;;;;;;;;;;;;5022954;28;19925;-68
2021/08/20 01:52:56;;;;;;;;;;;;;;;;;;5019694;28;19926;-68
2021/08/20 01:55:23;;;;;;;;;;;;;;;;;;5020546;28;19926;-69
2021/08/20 01:57:50;;;;;;;;;;;;;;;;;;5017730;28;19933;-69
2021/08/20 02:00:17;;;;;;;;;;;;;;;;;;5016022;28;19926;-68
2021/08/20 02:02:44;;;;;;;;;;;;;;;;;;5019999;28;19933;-69
2021/08/20 02:05:11;;;;;;;;;;;;;;;;;;5019950;28;19933;-68
2021/08/20 02:07:40;;;;;;;;;;;;;;;;;;5018839;28;19998;-69
2021/08/20 02:10:07;;;;;;;;;;;;;;;;;;5021069;28;19940;-68
2021/08/20 02:12:34;;;;;;;;;;;;;;;;;;5020209;28;20262;-68
2021/08/20 02:15:01;;;;;;;;;;;;;;;;;;5020782;28;19943;-69
2021/08/20 02:17:28;;;;;;;;;;;;;;;;;;5022857;28;19925;-68
2021/08/20 02:19:55;;;;;;;;;;;;;;;;;;5019402;28;19929;-68
2021/08/20 02:22:22;;;;;;;;;;;;;;;;;;5021817;28;20386;-68
2021/08/20 02:24:52;;;;;;;;;;;;;;;;;;5020690;28;19933;-69
2021/08/20 02:27:19;;;;;;;;;;;;;;;;;;5026974;28;20016;-69
2021/08/20 02:29:46;;;;;;;;;;;;;;;;;;5026642;28;19933;-68
2021/08/20 02:32:13;;;;;;;;;;;;;;;;;;5026823;28;19925;-68
2021/08/20 02:34:40;;;;;;;;;;;;;;;;;;5028926;28;20378;-67
2021/08/20 02:37:07;;;;;;;;;;;;;;;;;;5020214;28;19929;-70
2021/08/20 02:39:34;;;;;;;;;;;;;;;;;;5019918;28;19940;-69
2021/08/20 02:42:01;;;;;;;;;;;;;;;;;;5019956;28;20421;-69
2021/08/20 02:44:28;;;;;;;;;;;;;;;;;;5019232;28;19951;-69
2021/08/20 02:46:55;;;;;;;;;;;;;;;;;;5017081;28;19944;-69
2021/08/20 02:49:22;;;;;;;;;;;;;;;;;;5021432;28;19929;-69
2021/08/20 02:51:49;;;;;;;;;;;;;;;;;;5018601;28;19926;-69
2021/08/20 02:54:16;;;;;;;;;;;;;;;;;;5018279;28;19940;-69
2021/08/20 02:56:43;;;;;;;;;;;;;;;;;;5018515;28;19926;-69
2021/08/20 02:59:10;;;;;;;;;;;;;;;;;;5020571;28;19960;-68
2021/08/20 03:01:36;;;;;;;;;;;;;;;;;;5018696;28;19933;-68
2021/08/20 03:04:03;;;;;;;;;;;;;;;;;;5017289;28;19929;-69
2021/08/20 03:06:32;;;;;;;;;;;;;;;;;;5021825;28;19925;-69
2021/08/20 03:08:59;;;;;;;;;;;;;;;;;;5019598;28;20393;-69
2021/08/20 03:11:26;;;;;;;;;;;;;;;;;;5018429;28;20368;-69
2021/08/20 03:13:53;;;;;;;;;;;;;;;;;;5019620;28;20310;-69
2021/08/20 03:16:20;;;;;;;;;;;;;;;;;;5020241;28;20286;-69
2021/08/20 03:18:47;;;;;;;;;;;;;;;;;;5019013;28;19958;-69
2021/08/20 03:21:14;;;;;;;;;;;;;;;;;;5017206;28;19937;-69
2021/08/20 03:23:41;;;;;;;;;;;;;;;;;;5016729;28;20309;-69
2021/08/20 03:26:08;;;;;;;;;;;;;;;;;;5016721;28;19933;-69
2021/08/20 03:28:34;;;;;;;;;;;;;;;;;;5019503;28;19933;-68
2021/08/20 03:31:01;;;;;;;;;;;;;;;;;;5019119;28;19929;-68
2021/08/20 03:33:28;;;;;;;;;;;;;;;;;;5018262;28;19942;-69
2021/08/20 03:35:55;;;;;;;;;;;;;;;;;;5019089;28;20294;-68
2021/08/20 03:38:22;;;;;;;;;;;;;;;;;;5018198;28;19925;-69
2021/08/20 03:40:50;;;;;;;;;;;;;;;;;;5017179;28;19932;-69
2021/08/20 03:43:17;;;;;;;;;;;;;;;;;;5053433;22;19933;-65
2021/08/20 03:45:44;;;;;;;;;;;;;;;;;;5043324;28;19933;-66
2021/08/20 03:48:11;;;;;;;;;;;;;;;;;;5045605;28;19947;-65
2021/08/20 03:50:38;;;;;;;;;;;;;;;;;;5047447;28;19925;-66
2021/08/20 03:53:05;;;;;;;;;;;;;;;;;;5025520;28;19925;-64
2021/08/20 03:55:31;;;;;;;;;;;;;;;;;;5023949;28;20426;-66
2021/08/20 03:57:58;;;;;;;;;;;;;;;;;;5027416;28;19925;-66
2021/08/20 04:00:25;;;;;;;;;;;;;;;;;;5024954;28;19931;-65
2021/08/20 04:02:52;;;;;;;;;;;;;;;;;;5027504;28;19933;-65
2021/08/20 04:05:20;;;;;;;;;;;;;;;;;;5024002;28;20309;-65
2021/08/20 04:07:47;;;;;;;;;;;;;;;;;;5028580;28;19929;-65
2021/08/20 04:10:14;;;;;;;;;;;;;;;;;;5024835;28;19929;-65
2021/08/20 04:12:41;;;;;;;;;;;;;;;;;;5020369;28;19926;-67
2021/08/20 04:15:08;;;;;;;;;;;;;;;;;;5020873;28;19940;-66
2021/08/20 04:17:35;;;;;;;;;;;;;;;;;;5025915;28;19929;-66
2021/08/20 04:20:02;;;;;;;;;;;;;;;;;;5021161;28;20297;-65
2021/08/20 04:22:29;;;;;;;;;;;;;;;;;;5023303;28;19925;-66
2021/08/20 04:24:56;;;;;;;;;;;;;;;;;;5020100;28;20027;-65
2021/08/20 04:27:23;;;;;;;;;;;;;;;;;;5020413;28;19929;-64
2021/08/20 04:29:50;;;;;;;;;;;;;;;;;;5021980;28;19955;-66
2021/08/20 04:32:16;;;;;;;;;;;;;;;;;;5024602;28;19940;-66
2021/08/20 04:34:43;;;;;;;;;;;;;;;;;;5032255;28;20328;-66
2021/08/20 04:37:11;;;;;;;;;;;;;;;;;;5032742;28;19933;-66
2021/08/20 04:39:37;;;;;;;;;;;;;;;;;;5031683;28;20408;-66
2021/08/20 04:42:04;;;;;;;;;;;;;;;;;;5033533;28;19929;-66
2021/08/20 04:44:31;;;;;;;;;;;;;;;;;;5031244;28;19925;-69
2021/08/20 04:46:58;;;;;;;;;;;;;;;;;;5033427;28;20316;-65
2021/08/20 04:49:25;;;;;;;;;;;;;;;;;;5023858;28;19925;-64
2021/08/20 04:51:52;;;;;;;;;;;;;;;;;;5028843;28;19925;-65
2021/08/20 04:54:19;;;;;;;;;;;;;;;;;;5022422;28;19937;-66
2021/08/20 04:56:46;;;;;;;;;;;;;;;;;;5029390;28;19925;-66
2021/08/20 04:59:13;;;;;;;;;;;;;;;;;;5028806;28;19933;-66
2021/08/20 05:01:40;;;;;;;;;;;;;;;;;;5029035;28;19929;-66
2021/08/20 05:04:07;;;;;;;;;;;;;;;;;;5025062;28;19925;-65
2021/08/20 05:06:34;;;;;;;;;;;;;;;;;;5022278;28;19925;-67
2021/08/20 05:09:01;;;;;;;;;;;;;;;;;;5028535;28;20012;-65
2021/08/20 05:11:28;;;;;;;;;;;;;;;;;;5029918;28;20411;-67
2021/08/20 05:13:55;;;;;;;;;;;;;;;;;;5028469;28;19933;-67
2021/08/20 05:16:22;;;;;;;;;;;;;;;;;;5032839;28;19929;-68
2021/08/20 05:18:49;;;;;;;;;;;;;;;;;;5032400;28;20296;-68
2021/08/20 05:21:16;;;;;;;;;;;;;;;;;;5031125;28;20342;-68
2021/08/20 05:23:42;;;;;;;;;;;;;;;;;;5028107;28;19929;-68
2021/08/20 05:26:09;;;;;;;;;;;;;;;;;;5025377;28;19929;-66
2021/08/20 05:28:36;;;;;;;;;;;;;;;;;;5029978;28;19931;-65
2021/08/20 05:31:03;;;;;;;;;;;;;;;;;;5025014;28;19929;-66
2021/08/20 05:33:30;;;;;;;;;;;;;;;;;;5028421;28;19933;-66
2021/08/20 05:35:57;;;;;;;;;;;;;;;;;;5024725;28;20009;-67
2021/08/20 05:38:24;;;;;;;;;;;;;;;;;;5028826;28;20401;-66
2021/08/20 05:40:51;;;;;;;;;;;;;;;;;;5026954;28;20029;-64
2021/08/20 05:43:18;;;;;;;;;;;;;;;;;;5024839;28;19933;-66
2021/08/20 05:45:45;;;;;;;;;;;;;;;;;;5029304;28;19933;-67
2021/08/20 05:48:12;;;;;;;;;;;;;;;;;;5025005;28;20348;-66
2021/08/20 05:50:39;;;;;;;;;;;;;;;;;;5030283;28;19925;-66
2021/08/20 05:53:06;;;;;;;;;;;;;;;;;;5026997;28;20316;-67
2021/08/20 05:55:33;;;;;;;;;;;;;;;;;;5029117;28;19931;-66
2021/08/20 05:58:00;;;;;;;;;;;;;;;;;;5029128;28;19929;-67
2021/08/20 06:00:27;;;;;;;;;;;;;;;;;;5025229;28;20356;-66
2021/08/20 06:02:54;;;;;;;;;;;;;;;;;;5019423;28;19936;-66
2021/08/20 06:05:21;;;;;;;;;;;;;;;;;;5013945;28;19936;-67
2021/08/20 06:07:51;;;;;;;;;;;;;;;;;;5029888;28;19961;-67
2021/08/20 06:10:18;;;;;;;;;;;;;;;;;;5028760;28;19925;-66
2021/08/20 06:12:45;;;;;;;;;;;;;;;;;;5026577;28;20377;-67
2021/08/20 06:15:12;;;;;;;;;;;;;;;;;;5024753;28;19925;-67
2021/08/20 06:17:41;;;;;;;;;;;;;;;;;;5030516;28;20328;-67
2021/08/20 06:20:08;;;;;;;;;;;;;;;;;;5026978;28;20555;-67
2021/08/20 06:22:35;;;;;;;;;;;;;;;;;;5025414;28;20300;-68
2021/08/20 06:25:03;;;;;;;;;;;;;;;;;;5026970;28;19925;-65
2021/08/20 06:27:30;;;;;;;;;;;;;;;;;;5017692;28;19933;-67
2021/08/20 06:29:57;;;;;;;;;;;;;;;;;;5010618;28;19925;-67
2021/08/20 06:32:24;;;;;;;;;;;;;;;;;;5019535;28;19939;-67
2021/08/20 06:34:51;;;;;;;;;;;;;;;;;;5022929;28;20125;-67
2021/08/20 06:37:18;;;;;;;;;;;;;;;;;;5028617;28;19925;-67
2021/08/20 06:39:45;;;;;;;;;;;;;;;;;;5015927;28;19929;-66
2021/08/20 06:42:12;;;;;;;;;;;;;;;;;;5025988;28;19926;-67
2021/08/20 06:44:39;;;;;;;;;;;;;;;;;;5026302;28;19925;-68
2021/08/20 06:47:06;;;;;;;;;;;;;;;;;;5026142;28;19933;-67
2021/08/20 06:49:33;;;;;;;;;;;;;;;;;;5024273;28;19936;-65
2021/08/20 06:52:00;;;;;;;;;;;;;;;;;;5030380;28;19936;-66
2021/08/20 06:54:27;;;;;;;;;;;;;;;;;;5027872;28;19995;-68
2021/08/20 06:56:54;;;;;;;;;;;;;;;;;;5025474;28;20027;-66
2021/08/20 06:59:21;;;;;;;;;;;;;;;;;;5029917;28;19929;-68
2021/08/20 07:01:48;;;;;;;;;;;;;;;;;;5026283;28;20123;-68
2021/08/20 07:04:15;;;;;;;;;;;;;;;;;;5029201;28;19932;-67
2021/08/20 07:06:42;;;;;;;;;;;;;;;;;;5024524;28;20016;-67
2021/08/20 07:09:09;;;;;;;;;;;;;;;;;;5029251;28;19931;-67
2021/08/20 07:11:36;;;;;;;;;;;;;;;;;;5025534;28;20301;-68
2021/08/20 07:14:03;;;;;;;;;;;;;;;;;;5024508;28;19971;-67
2021/08/20 07:16:30;;;;;;;;;;;;;;;;;;5026444;28;19932;-68
2021/08/20 07:18:57;;;;;;;;;;;;;;;;;;5028944;28;19947;-66
2021/08/20 07:21:24;;;;;;;;;;;;;;;;;;5025355;28;20600;-66
2021/08/20 07:23:51;;;;;;;;;;;;;;;;;;5018589;28;19933;-67
2021/08/20 07:26:19;;;;;;;;;;;;;;;;;;5020622;28;19925;-66
2021/08/20 07:28:46;;;;;;;;;;;;;;;;;;5028018;28;19967;-68
2021/08/20 07:31:13;;;;;;;;;;;;;;;;;;5024554;28;20212;-66
2021/08/20 07:33:40;;;;;;;;;;;;;;;;;;5027978;28;20020;-66
2021/08/20 07:36:12;;;;;;;;;;;;;;;;;;5029795;28;19925;-66
2021/08/20 07:38:39;;;;;;;;;;;;;;;;;;5031343;28;20590;-66
2021/08/20 07:41:06;;;;;;;;;;;;;;;;;;5028730;28;20043;-67
2021/08/20 07:43:37;;;;;;;;;;;;;;;;;;5026371;28;19925;-67
2021/08/20 07:46:27;;;;;;;;;;;;;;;;;;5028109;28;19960;-67
2021/08/20 07:48:54;;;;;;;;;;;;;;;;;;5030793;28;19987;-67
2021/08/20 07:51:21;;;;;;;;;;;;;;;;;;5025589;28;19931;-68
2021/08/20 07:53:48;;;;;;;;;;;;;;;;;;5029899;28;20373;-67
2021/08/20 07:56:15;;;;;;;;;;;;;;;;;;5025576;28;20403;-67
2021/08/20 07:58:42;;;;;;;;;;;;;;;;;;5027839;28;19933;-66
2021/08/20 08:01:10;;;;;;;;;;;;;;;;;;5026242;28;20015;-67
2021/08/20 08:03:38;;;;;;;;;;;;;;;;;;5029591;28;19933;-66
2021/08/20 08:06:05;;;;;;;;;;;;;;;;;;5029457;28;19928;-66
2021/08/20 08:08:32;;;;;;;;;;;;;;;;;;5028275;28;19979;-69
2021/08/20 08:10:59;;;;;;;;;;;;;;;;;;5028894;28;20423;-69
2021/08/20 08:13:26;;;;;;;;;;;;;;;;;;5029138;28;19932;-69
2021/08/20 08:15:53;;;;;;;;;;;;;;;;;;5022673;28;19932;-68
2021/08/20 08:18:20;;;;;;;;;;;;;;;;;;5027334;28;19964;-66
2021/08/20 08:20:47;;;;;;;;;;;;;;;;;;5025838;28;19925;-66
2021/08/20 08:23:14;;;;;;;;;;;;;;;;;;5019884;28;19925;-66
2021/08/20 08:25:41;;;;;;;;;;;;;;;;;;5028902;28;19968;-68
2021/08/20 08:28:08;;;;;;;;;;;;;;;;;;5028439;28;20020;-68
2021/08/20 08:30:35;;;;;;;;;;;;;;;;;;5026854;28;19929;-68
2021/08/20 08:33:02;;;;;;;;;;;;;;;;;;5029438;28;19925;-68
2021/08/20 08:35:29;;;;;;;;;;;;;;;;;;5029474;28;19933;-66
2021/08/20 08:37:56;;;;;;;;;;;;;;;;;;5026607;28;19940;-66
2021/08/20 08:40:23;;;;;;;;;;;;;;;;;;5027994;28;20393;-65
2021/08/20 08:42:50;;;;;;;;;;;;;;;;;;5025524;28;20401;-66
2021/08/20 08:45:17;;;;;;;;;;;;;;;;;;5026209;28;20381;-67
2021/08/20 08:47:44;;;;;;;;;;;;;;;;;;5028315;28;19925;-66
2021/08/20 08:50:11;;;;;;;;;;;;;;;;;;5025754;28;19985;-66
2021/08/20 08:52:38;;;;;;;;;;;;;;;;;;5028563;28;19932;-65
2021/08/20 08:55:05;;;;;;;;;;;;;;;;;;5027393;28;20193;-66
2021/08/20 08:57:32;;;;;;;;;;;;;;;;;;5025995;28;19925;-65
2021/08/20 08:59:59;;;;;;;;;;;;;;;;;;5026120;28;19929;-66
2021/08/20 09:02:26;;;;;;;;;;;;;;;;;;5024699;28;19936;-66
2021/08/20 09:04:53;;;;;;;;;;;;;;;;;;5029825;28;19925;-66
2021/08/20 09:07:20;;;;;;;;;;;;;;;;;;5025714;28;19929;-66
2021/08/20 09:09:46;;;;;;;;;;;;;;;;;;5027049;28;19933;-66
2021/08/20 09:12:13;;;;;;;;;;;;;;;;;;5029666;28;19931;-66
2021/08/20 09:14:40;;;;;;;;;;;;;;;;;;5027306;28;20366;-66
2021/08/20 09:17:07;;;;;;;;;;;;;;;;;;5023883;28;19932;-67
2021/08/20 09:19:34;;;;;;;;;;;;;;;;;;5028459;28;19933;-67
2021/08/20 09:22:01;;;;;;;;;;;;;;;;;;5030658;28;20035;-67
2021/08/20 09:24:28;;;;;;;;;;;;;;;;;;5029122;28;19973;-66
2021/08/20 09:26:55;;;;;;;;;;;;;;;;;;5027433;28;19961;-65
2021/08/20 09:29:22;;;;;;;;;;;;;;;;;;5030557;28;19925;-66
2021/08/20 09:31:49;;;;;;;;;;;;;;;;;;5031365;28;19925;-66
2021/08/20 09:34:16;;;;;;;;;;;;;;;;;;5032922;28;19991;-66
2021/08/20 09:36:43;;;;;;;;;;;;;;;;;;5026912;28;19929;-66
2021/08/20 09:39:10;;;;;;;;;;;;;;;;;;5032244;28;20300;-66
2021/08/20 09:41:42;;;;;;;;;;;;;;;;;;5046630;22;19926;-68
2021/08/20 09:44:16;;;;;;;;;;;;;;;;;;5040264;28;19932;-69
2021/08/20 09:46:43;;;;;;;;;;;;;;;;;;5030855;28;19939;-70
2021/08/20 09:49:10;;;;;;;;;;;;;;;;;;5034578;28;20270;-69
2021/08/20 09:51:37;;;;;;;;;;;;;;;;;;5041465;28;20023;-70
2021/08/20 09:54:04;;;;;;;;;;;;;;;;;;5045835;28;19928;-69
2021/08/20 09:56:31;;;;;;;;;;;;;;;;;;5033835;28;20192;-70
2021/08/20 09:58:58;;;;;;;;;;;;;;;;;;5033759;28;19929;-69
2021/08/20 10:01:25;;;;;;;;;;;;;;;;;;5035024;28;20044;-69
2021/08/20 10:03:52;;;;;;;;;;;;;;;;;;5034620;28;19932;-69
2021/08/20 10:06:19;;;;;;;;;;;;;;;;;;5039942;28;19931;-68
2021/08/20 10:08:46;;;;;;;;;;;;;;;;;;5035179;28;20157;-69
2021/08/20 10:11:13;;;;;;;;;;;;;;;;;;5038604;28;19935;-68
2021/08/20 10:13:40;;;;;;;;;;;;;;;;;;5039621;28;19924;-69
2021/08/20 10:16:06;;;;;;;;;;;;;;;;;;5035274;28;19935;-68
2021/08/20 10:18:34;;;;;;;;;;;;;;;;;;5026598;28;19931;-68
2021/08/20 10:21:02;;;;;;;;;;;;;;;;;;5030724;28;19925;-70
2021/08/20 10:23:29;;;;;;;;;;;;;;;;;;5046325;28;20016;-69
2021/08/20 10:25:56;;;;;;;;;;;;;;;;;;5031020;28;20005;-71
2021/08/20 10:28:23;;;;;;;;;;;;;;;;;;5040970;28;19932;-71
2021/08/20 10:30:50;;;;;;;;;;;;;;;;;;5038656;28;19925;-72
2021/08/20 10:33:17;;;;;;;;;;;;;;;;;;5032365;28;20012;-70
2021/08/20 10:35:44;;;;;;;;;;;;;;;;;;5031185;28;20003;-70
2021/08/20 10:38:11;;;;;;;;;;;;;;;;;;5033045;28;19926;-69
2021/08/20 10:40:38;;;;;;;;;;;;;;;;;;5041391;28;20023;-69
2021/08/20 10:43:05;;;;;;;;;;;;;;;;;;5028920;28;19928;-70
2021/08/20 10:45:32;;;;;;;;;;;;;;;;;;5035443;28;19973;-69
2021/08/20 10:47:59;;;;;;;;;;;;;;;;;;5031220;28;19933;-68
2021/08/20 10:50:26;;;;;;;;;;;;;;;;;;5027076;28;19948;-70
2021/08/20 10:52:53;;;;;;;;;;;;;;;;;;5030594;28;20393;-72
2021/08/20 10:55:20;;;;;;;;;;;;;;;;;;5028676;28;19925;-68
2021/08/20 10:57:49;;;;;;;;;;;;;;;;;;5025736;28;19979;-70
2021/08/20 11:00:16;;;;;;;;;;;;;;;;;;5032243;28;19925;-69
2021/08/20 11:02:43;;;;;;;;;;;;;;;;;;5027812;28;19936;-69
2021/08/20 11:05:10;;;;;;;;;;;;;;;;;;5030033;28;20006;-69
2021/08/20 11:07:37;;;;;;;;;;;;;;;;;;5030412;28;20008;-70
2021/08/20 11:10:04;;;;;;;;;;;;;;;;;;5028258;28;20370;-68
2021/08/20 11:12:31;;;;;;;;;;;;;;;;;;5029827;28;19926;-68
2021/08/20 11:14:58;;;;;;;;;;;;;;;;;;5026613;28;19983;-68
2021/08/20 11:17:25;;;;;;;;;;;;;;;;;;5025599;28;19933;-67
2021/08/20 11:19:51;;;;;;;;;;;;;;;;;;5024001;28;19931;-67
2021/08/20 11:22:18;;;;;;;;;;;;;;;;;;5024019;28;19926;-67
2021/08/20 11:24:45;;;;;;;;;;;;;;;;;;5022502;28;19966;-66
2021/08/20 11:27:12;;;;;;;;;;;;;;;;;;5025209;28;20012;-68
2021/08/20 11:29:39;;;;;;;;;;;;;;;;;;5024740;28;19933;-68
2021/08/20 11:32:06;;;;;;;;;;;;;;;;;;5030145;28;19925;-71
2021/08/20 11:34:33;;;;;;;;;;;;;;;;;;5028901;28;20364;-71
2021/08/20 11:37:00;;;;;;;;;;;;;;;;;;5029908;28;19936;-71
2021/08/20 11:39:29;;;;;;;;;;;;;;;;;;5021935;28;19929;-72
2021/08/20 11:41:58;;;;;;;;;;;;;;;;;;5025911;28;19925;-71
2021/08/20 11:44:25;;;;;;;;;;;;;;;;;;5023853;28;20348;-72
2021/08/20 11:46:53;;;;;;;;;;;;;;;;;;5026229;28;19926;-71
2021/08/20 11:49:22;;;;;;;;;;;;;;;;;;5024805;28;19925;-73
2021/08/20 11:51:50;;;;;;;;;;;;;;;;;;5045654;28;19913;-73
2021/08/20 11:54:19;;;;;;;;;;;;;;;;;;5046902;28;19968;-71
2021/08/20 11:56:47;;;;;;;;;;;;;;;;;;5052184;28;19925;-70
2021/08/20 11:59:14;;;;;;;;;;;;;;;;;;5031823;28;20392;-72
2021/08/20 12:01:41;;;;;;;;;;;;;;;;;;5033889;28;19937;-71
2021/08/20 12:04:08;;;;;;;;;;;;;;;;;;5031372;28;19925;-73
2021/08/20 12:06:35;;;;;;;;;;;;;;;;;;5030298;28;19932;-72
2021/08/20 12:09:02;;;;;;;;;;;;;;;;;;5022658;28;19925;-69
2021/08/20 12:11:29;;;;;;;;;;;;;;;;;;5020741;28;19935;-73
2021/08/20 12:13:56;;;;;;;;;;;;;;;;;;5030188;28;19925;-71
2021/08/20 12:16:23;;;;;;;;;;;;;;;;;;5023468;28;19928;-72
2021/08/20 12:18:50;;;;;;;;;;;;;;;;;;5021909;28;20395;-72
2021/08/20 12:24:05;;;;;;;;;;;;;;;;;;5034273;28;19926;-69
2021/08/20 12:26:32;;;;;;;;;;;;;;;;;;5043734;28;20391;-72
2021/08/20 12:28:59;;;;;;;;;;;;;;;;;;5025583;28;20043;-72
2021/08/20 12:31:26;;;;;;;;;;;;;;;;;;5036316;28;20454;-71
2021/08/20 12:33:53;;;;;;;;;;;;;;;;;;5034749;28;19925;-69
2021/08/20 12:36:20;;;;;;;;;;;;;;;;;;5024597;28;19925;-71
2021/08/20 12:38:47;;;;;;;;;;;;;;;;;;5027107;28;19925;-69
2021/08/20 12:41:14;;;;;;;;;;;;;;;;;;5038020;28;19936;-68
2021/08/20 12:43:42;;;;;;;;;;;;;;;;;;5038551;28;19983;-73
2021/08/20 12:46:10;;;;;;;;;;;;;;;;;;5032841;28;19925;-70
2021/08/20 12:48:37;;;;;;;;;;;;;;;;;;5029493;28;20297;-69
2021/08/20 12:51:04;;;;;;;;;;;;;;;;;;5024450;28;19925;-68
2021/08/20 12:53:31;;;;;;;;;;;;;;;;;;5026404;28;19960;-69
2021/08/20 12:56:00;;;;;;;;;;;;;;;;;;5040401;28;19933;-70
2021/08/20 12:58:40;;;;;;;;;;;;;;;;;;5055616;28;19944;-67
2021/08/20 13:01:08;;;;;;;;;;;;;;;;;;5043191;28;19936;-71
2021/08/20 13:03:35;;;;;;;;;;;;;;;;;;5037213;28;19929;-72
2021/08/20 13:06:02;;;;;;;;;;;;;;;;;;5037764;28;20020;-71
2021/08/20 13:08:29;;;;;;;;;;;;;;;;;;5041704;28;19955;-71
2021/08/20 13:10:56;;;;;;;;;;;;;;;;;;5040247;28;19940;-73
2021/08/20 13:13:23;;;;;;;;;;;;;;;;;;5036092;28;19929;-71
2021/08/20 13:15:50;;;;;;;;;;;;;;;;;;5038636;28;19925;-66
2021/08/20 13:18:17;;;;;;;;;;;;;;;;;;5044567;28;19993;-72
2021/08/20 13:20:44;;;;;;;;;;;;;;;;;;5033427;28;20400;-71
2021/08/20 13:23:11;;;;;;;;;;;;;;;;;;5041549;28;19932;-69
2021/08/20 13:25:40;;;;;;;;;;;;;;;;;;5044597;28;19932;-70
2021/08/20 13:28:07;;;;;;;;;;;;;;;;;;5049298;28;19932;-70
2021/08/20 13:30:34;;;;;;;;;;;;;;;;;;5048064;28;19929;-69
2021/08/20 13:33:01;;;;;;;;;;;;;;;;;;5051124;28;19959;-70
2021/08/20 13:35:28;;;;;;;;;;;;;;;;;;5048368;28;19925;-72
2021/08/20 13:37:55;;;;;;;;;;;;;;;;;;5045864;28;20397;-73
2021/08/20 13:40:24;;;;;;;;;;;;;;;;;;5028653;28;21700;-72
2021/08/20 13:42:51;;;;;;;;;;;;;;;;;;5028762;28;20380;-72
2021/08/20 13:45:18;;;;;;;;;;;;;;;;;;5021336;28;19925;-69
2021/08/20 13:47:45;;;;;;;;;;;;;;;;;;5028152;28;19931;-70
2021/08/20 13:50:12;;;;;;;;;;;;;;;;;;5023835;28;19932;-70
2021/08/20 13:52:39;;;;;;;;;;;;;;;;;;5021754;28;20296;-69
2021/08/20 13:55:06;;;;;;;;;;;;;;;;;;5024096;28;19933;-68
2021/08/20 13:57:33;;;;;;;;;;;;;;;;;;5019049;28;19933;-71
2021/08/20 14:00:00;;;;;;;;;;;;;;;;;;5022308;28;20616;-71
2021/08/20 14:02:27;;;;;;;;;;;;;;;;;;5027793;28;19968;-74
2021/08/20 14:04:54;;;;;;;;;;;;;;;;;;5027976;28;19929;-69
2021/08/20 14:07:21;;;;;;;;;;;;;;;;;;5026648;28;19935;-70
2021/08/20 14:09:48;;;;;;;;;;;;;;;;;;5027136;28;19933;-68
2021/08/20 14:12:15;;;;;;;;;;;;;;;;;;5026315;28;19925;-71
2021/08/20 14:14:41;;;;;;;;;;;;;;;;;;5028084;28;19925;-67
2021/08/20 14:17:08;;;;;;;;;;;;;;;;;;5030339;28;20015;-69
2021/08/20 14:19:35;;;;;;;;;;;;;;;;;;5035198;28;19925;-69
2021/08/20 14:22:02;;;;;;;;;;;;;;;;;;5038212;28;19929;-69
2021/08/20 14:24:29;;;;;;;;;;;;;;;;;;5033641;28;19925;-69
2021/08/20 14:26:56;;;;;;;;;;;;;;;;;;5030931;28;19932;-68
2021/08/20 14:29:23;;;;;;;;;;;;;;;;;;5027306;28;19929;-70
2021/08/20 14:31:50;;;;;;;;;;;;;;;;;;5026769;28;20439;-70
2021/08/20 14:34:17;;;;;;;;;;;;;;;;;;5029295;28;19929;-68
2021/08/20 14:36:46;;;;;;;;;;;;;;;;;;5028847;28;19933;-69
2021/08/20 14:39:13;;;;;;;;;;;;;;;;;;5028666;28;19929;-70
2021/08/20 14:41:40;;;;;;;;;;;;;;;;;;5027968;28;19933;-71
2021/08/20 14:44:07;;;;;;;;;;;;;;;;;;5028256;28;19994;-71
2021/08/20 14:46:34;;;;;;;;;;;;;;;;;;5029158;28;20024;-70
2021/08/20 14:49:01;;;;;;;;;;;;;;;;;;5029055;28;19929;-70
2021/08/20 14:51:28;;;;;;;;;;;;;;;;;;5027309;28;20301;-69
2021/08/20 14:53:55;;;;;;;;;;;;;;;;;;5029042;28;19925;-70
2021/08/20 14:56:22;;;;;;;;;;;;;;;;;;5027863;28;20005;-70
2021/08/20 14:58:49;;;;;;;;;;;;;;;;;;5023692;28;19948;-71
2021/08/20 15:01:16;;;;;;;;;;;;;;;;;;5024338;28;20355;-69
2021/08/20 15:03:43;;;;;;;;;;;;;;;;;;5026905;28;19980;-68
2021/08/20 15:06:10;;;;;;;;;;;;;;;;;;5026776;28;19932;-68
2021/08/20 15:08:37;;;;;;;;;;;;;;;;;;5041112;28;19932;-72
2021/08/20 15:11:04;;;;;;;;;;;;;;;;;;5029155;28;19951;-69
2021/08/20 15:13:31;;;;;;;;;;;;;;;;;;5026144;28;20349;-70
2021/08/20 15:15:58;;;;;;;;;;;;;;;;;;5028763;28;20415;-71
2021/08/20 15:18:25;;;;;;;;;;;;;;;;;;5027827;28;19926;-70
2021/08/20 15:20:52;;;;;;;;;;;;;;;;;;5029015;28;19932;-69
2021/08/20 15:23:19;;;;;;;;;;;;;;;;;;5026261;28;20044;-69
2021/08/20 15:25:46;;;;;;;;;;;;;;;;;;5024788;28;19933;-68
2021/08/20 15:28:13;;;;;;;;;;;;;;;;;;5027900;28;19925;-69
2021/08/20 15:30:40;;;;;;;;;;;;;;;;;;5025208;28;19925;-73
2021/08/20 15:33:07;;;;;;;;;;;;;;;;;;5022324;28;20300;-71
2021/08/20 15:35:34;;;;;;;;;;;;;;;;;;5014488;28;19971;-71
2021/08/20 15:38:01;;;;;;;;;;;;;;;;;;5022643;28;19925;-72
2021/08/20 15:40:28;;;;;;;;;;;;;;;;;;5024108;28;19925;-70
2021/08/20 15:42:55;;;;;;;;;;;;;;;;;;5038925;22;20373;-67
2021/08/20 15:45:22;;;;;;;;;;;;;;;;;;5017592;28;20419;-68
2021/08/20 15:47:49;;;;;;;;;;;;;;;;;;5027179;28;19929;-70
2021/08/20 15:50:16;;;;;;;;;;;;;;;;;;5027301;28;19925;-69
2021/08/20 15:52:43;;;;;;;;;;;;;;;;;;5024617;28;19973;-69
2021/08/20 15:55:10;;;;;;;;;;;;;;;;;;5022094;28;20316;-67
2021/08/20 15:57:37;;;;;;;;;;;;;;;;;;5019840;28;19925;-68
2021/08/20 16:00:04;;;;;;;;;;;;;;;;;;5020100;28;19933;-67
2021/08/20 16:02:31;;;;;;;;;;;;;;;;;;5011377;28;19933;-70
2021/08/20 16:04:58;;;;;;;;;;;;;;;;;;5012606;28;19929;-65
2021/08/20 16:07:25;;;;;;;;;;;;;;;;;;5010679;28;19929;-67
2021/08/20 16:09:52;;;;;;;;;;;;;;;;;;5021006;28;19925;-68
2021/08/20 16:12:19;;;;;;;;;;;;;;;;;;5015250;28;20289;-66
2021/08/20 16:14:46;;;;;;;;;;;;;;;;;;5016454;28;19932;-69
2021/08/20 16:17:12;;;;;;;;;;;;;;;;;;5016871;28;19940;-65
2021/08/20 16:19:39;;;;;;;;;;;;;;;;;;5015493;28;19933;-67
2021/08/20 16:22:06;;;;;;;;;;;;;;;;;;5016035;28;19932;-66
2021/08/20 16:24:33;;;;;;;;;;;;;;;;;;5015851;28;19925;-68
2021/08/20 16:27:01;;;;;;;;;;;;;;;;;;5014086;28;19929;-64
2021/08/20 16:29:27;;;;;;;;;;;;;;;;;;5017897;28;19929;-67
2021/08/20 16:31:54;;;;;;;;;;;;;;;;;;5021045;28;20022;-68
2021/08/20 16:34:21;;;;;;;;;;;;;;;;;;5018683;28;19933;-69
2021/08/20 16:36:48;;;;;;;;;;;;;;;;;;5022826;28;20336;-68
2021/08/20 16:39:18;;;;;;;;;;;;;;;;;;5021958;28;21451;-67
2021/08/20 16:41:45;;;;;;;;;;;;;;;;;;5022890;28;19965;-66
2021/08/20 16:44:12;;;;;;;;;;;;;;;;;;5021519;28;19956;-68
2021/08/20 16:46:41;;;;;;;;;;;;;;;;;;5026716;28;19930;-67